sensor_id;sensor_type;location;lat;lon;timestamp;temperature;humidity
18392;DHT22;9322;50.932;5.318;2024-03-02T00:00:09;8.20;1.40
18392;DHT22;9322;50.932;5.318;2024-03-02T00:02:55;8.10;1.40
18392;DHT22;9322;50.932;5.318;2024-03-02T00:05:22;7.90;1.40
18392;DHT22;9322;50.932;5.318;2024-03-02T00:07:55;8.00;1.40
18392;DHT22;9322;50.932;5.318;2024-03-02T00:10:25;7.90;1.40
18392;DHT22;9322;50.932;5.318;2024-03-02T00:12:55;7.80;1.40
18392;DHT22;9322;50.932;5.318;2024-03-02T00:17:53;7.60;1.40
18392;DHT22;9322;50.932;5.318;2024-03-02T00:20:22;7.50;1.40
18392;DHT22;9322;50.932;5.318;2024-03-02T00:22:49;7.50;1.40
18392;DHT22;9322;50.932;5.318;2024-03-02T00:25:15;7.50;1.40
18392;DHT22;9322;50.932;5.318;2024-03-02T00:27:40;7.60;1.40
18392;DHT22;9322;50.932;5.318;2024-03-02T00:33:08;7.40;1.40
18392;DHT22;9322;50.932;5.318;2024-03-02T00:35:34;7.40;1.40
18392;DHT22;9322;50.932;5.318;2024-03-02T00:38:04;7.50;1.40
18392;DHT22;9322;50.932;5.318;2024-03-02T00:40:31;7.50;1.40
18392;DHT22;9322;50.932;5.318;2024-03-02T00:42:57;7.70;1.40
18392;DHT22;9322;50.932;5.318;2024-03-02T00:45:23;7.60;1.40
18392;DHT22;9322;50.932;5.318;2024-03-02T00:47:50;7.60;1.40
18392;DHT22;9322;50.932;5.318;2024-03-02T00:50:16;7.70;1.40
18392;DHT22;9322;50.932;5.318;2024-03-02T00:52:42;7.70;1.40
18392;DHT22;9322;50.932;5.318;2024-03-02T00:55:08;7.70;1.40
18392;DHT22;9322;50.932;5.318;2024-03-02T00:57:34;7.80;1.40
18392;DHT22;9322;50.932;5.318;2024-03-02T01:00:00;7.80;1.40
18392;DHT22;9322;50.932;5.318;2024-03-02T01:02:28;7.70;1.40
18392;DHT22;9322;50.932;5.318;2024-03-02T01:04:54;7.70;1.40
18392;DHT22;9322;50.932;5.318;2024-03-02T01:07:20;7.80;1.40
18392;DHT22;9322;50.932;5.318;2024-03-02T01:09:45;7.80;1.40
18392;DHT22;9322;50.932;5.318;2024-03-02T01:12:11;7.80;1.40
18392;DHT22;9322;50.932;5.318;2024-03-02T01:14:37;7.80;1.40
18392;DHT22;9322;50.932;5.318;2024-03-02T01:17:02;7.80;1.40
18392;DHT22;9322;50.932;5.318;2024-03-02T01:19:30;7.90;1.40
18392;DHT22;9322;50.932;5.318;2024-03-02T01:21:55;7.80;1.40
18392;DHT22;9322;50.932;5.318;2024-03-02T01:24:21;7.80;1.40
18392;DHT22;9322;50.932;5.318;2024-03-02T01:26:47;7.70;1.40
18392;DHT22;9322;50.932;5.318;2024-03-02T01:29:12;7.60;1.40
18392;DHT22;9322;50.932;5.318;2024-03-02T01:31:38;7.60;1.40
18392;DHT22;9322;50.932;5.318;2024-03-02T01:34:07;7.80;1.40
18392;DHT22;9322;50.932;5.318;2024-03-02T01:36:33;7.70;1.40
18392;DHT22;9322;50.932;5.318;2024-03-02T01:38:59;7.70;1.40
18392;DHT22;9322;50.932;5.318;2024-03-02T01:41:24;7.80;1.40
18392;DHT22;9322;50.932;5.318;2024-03-02T01:43:50;7.80;1.40
18392;DHT22;9322;50.932;5.318;2024-03-02T01:46:16;7.80;1.40
18392;DHT22;9322;50.932;5.318;2024-03-02T01:48:41;7.90;1.40
18392;DHT22;9322;50.932;5.318;2024-03-02T01:51:07;7.80;1.40
18392;DHT22;9322;50.932;5.318;2024-03-02T01:53:34;7.70;1.40
18392;DHT22;9322;50.932;5.318;2024-03-02T01:56:00;7.90;1.40
18392;DHT22;9322;50.932;5.318;2024-03-02T01:58:27;7.70;1.40
18392;DHT22;9322;50.932;5.318;2024-03-02T02:00:52;7.80;1.40
18392;DHT22;9322;50.932;5.318;2024-03-02T02:03:18;7.80;1.40
18392;DHT22;9322;50.932;5.318;2024-03-02T02:05:44;7.90;1.40
18392;DHT22;9322;50.932;5.318;2024-03-02T02:08:09;7.80;1.40
18392;DHT22;9322;50.932;5.318;2024-03-02T02:10:36;7.70;1.40
18392;DHT22;9322;50.932;5.318;2024-03-02T02:13:01;7.70;1.40
18392;DHT22;9322;50.932;5.318;2024-03-02T02:15:29;7.80;1.40
18392;DHT22;9322;50.932;5.318;2024-03-02T02:17:55;7.70;1.40
18392;DHT22;9322;50.932;5.318;2024-03-02T02:20:21;7.60;1.40
18392;DHT22;9322;50.932;5.318;2024-03-02T02:23:01;7.60;1.40
18392;DHT22;9322;50.932;5.318;2024-03-02T02:25:28;7.60;1.40
18392;DHT22;9322;50.932;5.318;2024-03-02T02:27:54;7.40;1.40
18392;DHT22;9322;50.932;5.318;2024-03-02T02:30:25;7.40;1.40
18392;DHT22;9322;50.932;5.318;2024-03-02T02:32:51;7.30;1.40
18392;DHT22;9322;50.932;5.318;2024-03-02T02:35:16;7.20;1.40
18392;DHT22;9322;50.932;5.318;2024-03-02T02:37:43;7.30;1.40
18392;DHT22;9322;50.932;5.318;2024-03-02T02:40:10;7.50;1.40
18392;DHT22;9322;50.932;5.318;2024-03-02T02:42:36;7.30;1.40
18392;DHT22;9322;50.932;5.318;2024-03-02T02:45:01;7.20;1.40
18392;DHT22;9322;50.932;5.318;2024-03-02T02:47:27;7.30;1.40
18392;DHT22;9322;50.932;5.318;2024-03-02T02:49:55;7.30;1.40
18392;DHT22;9322;50.932;5.318;2024-03-02T02:52:20;7.30;1.40
18392;DHT22;9322;50.932;5.318;2024-03-02T02:54:46;7.50;1.40
18392;DHT22;9322;50.932;5.318;2024-03-02T02:57:12;7.20;1.40
18392;DHT22;9322;50.932;5.318;2024-03-02T02:59:37;7.30;1.40
18392;DHT22;9322;50.932;5.318;2024-03-02T03:02:03;7.30;1.40
18392;DHT22;9322;50.932;5.318;2024-03-02T03:04:29;7.20;1.40
18392;DHT22;9322;50.932;5.318;2024-03-02T03:06:55;7.20;1.40
18392;DHT22;9322;50.932;5.318;2024-03-02T03:09:20;7.20;1.40
18392;DHT22;9322;50.932;5.318;2024-03-02T03:11:46;7.20;1.40
18392;DHT22;9322;50.932;5.318;2024-03-02T03:14:11;7.20;1.40
18392;DHT22;9322;50.932;5.318;2024-03-02T03:16:38;7.20;1.40
18392;DHT22;9322;50.932;5.318;2024-03-02T03:19:03;7.20;1.40
18392;DHT22;9322;50.932;5.318;2024-03-02T03:21:29;7.30;1.40
18392;DHT22;9322;50.932;5.318;2024-03-02T03:23:54;7.30;1.40
18392;DHT22;9322;50.932;5.318;2024-03-02T03:26:20;7.40;1.40
18392;DHT22;9322;50.932;5.318;2024-03-02T03:28:46;7.40;1.40
18392;DHT22;9322;50.932;5.318;2024-03-02T03:31:12;7.50;1.40
18392;DHT22;9322;50.932;5.318;2024-03-02T03:33:37;7.40;1.40
18392;DHT22;9322;50.932;5.318;2024-03-02T03:36:03;7.20;1.40
18392;DHT22;9322;50.932;5.318;2024-03-02T03:38:29;7.10;1.40
18392;DHT22;9322;50.932;5.318;2024-03-02T03:40:55;7.20;1.40
18392;DHT22;9322;50.932;5.318;2024-03-02T03:43:21;7.10;1.40
18392;DHT22;9322;50.932;5.318;2024-03-02T03:45:46;7.10;1.40
18392;DHT22;9322;50.932;5.318;2024-03-02T03:48:12;7.00;1.40
18392;DHT22;9322;50.932;5.318;2024-03-02T03:50:38;7.00;1.40
18392;DHT22;9322;50.932;5.318;2024-03-02T03:53:03;7.10;1.40
18392;DHT22;9322;50.932;5.318;2024-03-02T03:55:29;7.40;1.40
18392;DHT22;9322;50.932;5.318;2024-03-02T03:57:55;7.30;1.40
18392;DHT22;9322;50.932;5.318;2024-03-02T04:00:20;7.20;1.40
18392;DHT22;9322;50.932;5.318;2024-03-02T04:02:46;7.20;1.40
18392;DHT22;9322;50.932;5.318;2024-03-02T04:05:11;7.50;1.40
18392;DHT22;9322;50.932;5.318;2024-03-02T04:07:37;7.60;1.40
18392;DHT22;9322;50.932;5.318;2024-03-02T04:10:07;7.50;1.40
18392;DHT22;9322;50.932;5.318;2024-03-02T04:12:34;7.30;1.40
18392;DHT22;9322;50.932;5.318;2024-03-02T04:15:01;7.20;1.40
18392;DHT22;9322;50.932;5.318;2024-03-02T04:17:27;7.10;1.40
18392;DHT22;9322;50.932;5.318;2024-03-02T04:19:52;7.20;1.40
18392;DHT22;9322;50.932;5.318;2024-03-02T04:22:18;7.10;1.40
18392;DHT22;9322;50.932;5.318;2024-03-02T04:24:44;7.10;1.40
18392;DHT22;9322;50.932;5.318;2024-03-02T04:27:09;7.00;1.40
18392;DHT22;9322;50.932;5.318;2024-03-02T04:29:35;6.90;1.40
18392;DHT22;9322;50.932;5.318;2024-03-02T04:32:00;7.00;1.40
18392;DHT22;9322;50.932;5.318;2024-03-02T04:34:26;6.90;1.40
18392;DHT22;9322;50.932;5.318;2024-03-02T04:36:51;6.90;1.40
18392;DHT22;9322;50.932;5.318;2024-03-02T04:39:17;7.00;1.40
18392;DHT22;9322;50.932;5.318;2024-03-02T04:41:43;7.20;1.40
18392;DHT22;9322;50.932;5.318;2024-03-02T04:44:08;6.90;1.40
18392;DHT22;9322;50.932;5.318;2024-03-02T04:46:35;6.90;1.40
18392;DHT22;9322;50.932;5.318;2024-03-02T04:49:01;7.00;1.40
18392;DHT22;9322;50.932;5.318;2024-03-02T04:51:26;7.20;1.40
18392;DHT22;9322;50.932;5.318;2024-03-02T04:53:52;7.10;1.40
18392;DHT22;9322;50.932;5.318;2024-03-02T04:56:18;7.10;1.40
18392;DHT22;9322;50.932;5.318;2024-03-02T04:59:02;7.00;1.40
18392;DHT22;9322;50.932;5.318;2024-03-02T05:01:28;6.80;1.40
18392;DHT22;9322;50.932;5.318;2024-03-02T05:03:53;6.80;1.40
18392;DHT22;9322;50.932;5.318;2024-03-02T05:06:19;6.70;1.40
18392;DHT22;9322;50.932;5.318;2024-03-02T05:08:44;6.70;1.40
18392;DHT22;9322;50.932;5.318;2024-03-02T05:11:10;6.60;1.40
18392;DHT22;9322;50.932;5.318;2024-03-02T05:14:05;6.60;1.40
18392;DHT22;9322;50.932;5.318;2024-03-02T05:16:37;6.60;1.40
18392;DHT22;9322;50.932;5.318;2024-03-02T05:19:07;6.50;1.40
18392;DHT22;9322;50.932;5.318;2024-03-02T05:21:33;6.70;1.40
18392;DHT22;9322;50.932;5.318;2024-03-02T05:23:59;6.50;1.40
18392;DHT22;9322;50.932;5.318;2024-03-02T05:26:25;6.50;1.40
18392;DHT22;9322;50.932;5.318;2024-03-02T05:28:50;6.50;1.40
18392;DHT22;9322;50.932;5.318;2024-03-02T05:31:16;6.50;1.40
18392;DHT22;9322;50.932;5.318;2024-03-02T05:33:42;6.60;1.40
18392;DHT22;9322;50.932;5.318;2024-03-02T05:36:08;6.50;1.40
18392;DHT22;9322;50.932;5.318;2024-03-02T05:38:37;6.60;1.40
18392;DHT22;9322;50.932;5.318;2024-03-02T05:41:03;6.40;1.40
18392;DHT22;9322;50.932;5.318;2024-03-02T05:43:29;6.40;1.40
18392;DHT22;9322;50.932;5.318;2024-03-02T05:45:54;6.50;1.40
18392;DHT22;9322;50.932;5.318;2024-03-02T05:48:20;6.50;1.40
18392;DHT22;9322;50.932;5.318;2024-03-02T05:50:46;6.80;1.40
18392;DHT22;9322;50.932;5.318;2024-03-02T05:53:12;6.40;1.40
18392;DHT22;9322;50.932;5.318;2024-03-02T05:55:37;6.40;1.40
18392;DHT22;9322;50.932;5.318;2024-03-02T05:58:03;6.60;1.40
18392;DHT22;9322;50.932;5.318;2024-03-02T06:00:32;6.40;1.40
18392;DHT22;9322;50.932;5.318;2024-03-02T06:02:58;6.60;1.40
18392;DHT22;9322;50.932;5.318;2024-03-02T06:05:24;6.40;1.40
18392;DHT22;9322;50.932;5.318;2024-03-02T06:07:50;6.40;1.40
18392;DHT22;9322;50.932;5.318;2024-03-02T06:10:16;6.40;1.40
18392;DHT22;9322;50.932;5.318;2024-03-02T06:12:43;6.40;1.40
18392;DHT22;9322;50.932;5.318;2024-03-02T06:15:09;6.30;1.40
18392;DHT22;9322;50.932;5.318;2024-03-02T06:17:35;6.30;1.40
18392;DHT22;9322;50.932;5.318;2024-03-02T06:20:01;6.40;1.40
18392;DHT22;9322;50.932;5.318;2024-03-02T06:22:27;6.40;1.40
18392;DHT22;9322;50.932;5.318;2024-03-02T06:24:53;6.40;1.40
18392;DHT22;9322;50.932;5.318;2024-03-02T06:27:18;6.50;1.40
18392;DHT22;9322;50.932;5.318;2024-03-02T06:29:44;6.50;1.40
18392;DHT22;9322;50.932;5.318;2024-03-02T06:32:10;6.50;1.40
18392;DHT22;9322;50.932;5.318;2024-03-02T06:34:35;6.50;1.40
18392;DHT22;9322;50.932;5.318;2024-03-02T06:37:01;6.90;1.40
18392;DHT22;9322;50.932;5.318;2024-03-02T06:39:26;6.70;1.40
18392;DHT22;9322;50.932;5.318;2024-03-02T06:41:52;6.70;1.40
18392;DHT22;9322;50.932;5.318;2024-03-02T06:44:18;6.60;1.40
18392;DHT22;9322;50.932;5.318;2024-03-02T06:46:43;6.60;1.40
18392;DHT22;9322;50.932;5.318;2024-03-02T06:49:09;6.60;1.40
18392;DHT22;9322;50.932;5.318;2024-03-02T06:51:38;6.60;1.40
18392;DHT22;9322;50.932;5.318;2024-03-02T06:54:03;7.00;1.40
18392;DHT22;9322;50.932;5.318;2024-03-02T06:56:29;7.50;1.40
18392;DHT22;9322;50.932;5.318;2024-03-02T06:58:56;7.90;1.40
18392;DHT22;9322;50.932;5.318;2024-03-02T07:01:21;7.90;1.40
18392;DHT22;9322;50.932;5.318;2024-03-02T07:03:47;8.10;1.40
18392;DHT22;9322;50.932;5.318;2024-03-02T07:06:13;8.60;1.40
18392;DHT22;9322;50.932;5.318;2024-03-02T07:08:38;8.30;1.40
18392;DHT22;9322;50.932;5.318;2024-03-02T07:11:04;8.00;1.40
18392;DHT22;9322;50.932;5.318;2024-03-02T07:13:29;7.60;1.40
18392;DHT22;9322;50.932;5.318;2024-03-02T07:15:55;7.40;1.40
18392;DHT22;9322;50.932;5.318;2024-03-02T07:18:30;7.20;1.40
18392;DHT22;9322;50.932;5.318;2024-03-02T07:20:57;7.10;1.40
18392;DHT22;9322;50.932;5.318;2024-03-02T07:23:29;7.20;1.40
18392;DHT22;9322;50.932;5.318;2024-03-02T07:25:56;7.10;1.40
18392;DHT22;9322;50.932;5.318;2024-03-02T07:28:25;7.10;1.40
18392;DHT22;9322;50.932;5.318;2024-03-02T07:31:02;7.10;1.40
18392;DHT22;9322;50.932;5.318;2024-03-02T07:33:28;7.10;1.40
18392;DHT22;9322;50.932;5.318;2024-03-02T07:35:54;7.20;1.40
18392;DHT22;9322;50.932;5.318;2024-03-02T07:38:21;7.10;1.40
18392;DHT22;9322;50.932;5.318;2024-03-02T07:40:48;7.20;1.40
18392;DHT22;9322;50.932;5.318;2024-03-02T07:43:16;7.30;1.40
18392;DHT22;9322;50.932;5.318;2024-03-02T07:45:42;7.40;1.40
18392;DHT22;9322;50.932;5.318;2024-03-02T07:48:08;7.50;1.40
18392;DHT22;9322;50.932;5.318;2024-03-02T07:50:34;8.20;1.40
18392;DHT22;9322;50.932;5.318;2024-03-02T07:53:03;9.50;1.40
18392;DHT22;9322;50.932;5.318;2024-03-02T07:55:29;10.80;1.40
18392;DHT22;9322;50.932;5.318;2024-03-02T07:57:56;11.90;1.40
18392;DHT22;9322;50.932;5.318;2024-03-02T08:00:22;12.40;1.40
18392;DHT22;9322;50.932;5.318;2024-03-02T08:02:49;12.40;1.40
18392;DHT22;9322;50.932;5.318;2024-03-02T08:05:16;12.20;1.40
18392;DHT22;9322;50.932;5.318;2024-03-02T08:07:44;13.00;1.40
18392;DHT22;9322;50.932;5.318;2024-03-02T08:10:11;13.40;1.40
18392;DHT22;9322;50.932;5.318;2024-03-02T08:12:37;12.70;1.40
18392;DHT22;9322;50.932;5.318;2024-03-02T08:15:03;12.20;1.40
18392;DHT22;9322;50.932;5.318;2024-03-02T08:17:29;12.40;1.40
18392;DHT22;9322;50.932;5.318;2024-03-02T08:19:56;13.10;1.40
18392;DHT22;9322;50.932;5.318;2024-03-02T08:22:22;13.50;1.40
18392;DHT22;9322;50.932;5.318;2024-03-02T08:24:47;13.50;1.40
18392;DHT22;9322;50.932;5.318;2024-03-02T08:27:13;14.10;1.40
18392;DHT22;9322;50.932;5.318;2024-03-02T08:29:40;12.70;1.40
18392;DHT22;9322;50.932;5.318;2024-03-02T08:32:07;12.30;1.40
18392;DHT22;9322;50.932;5.318;2024-03-02T08:34:32;12.70;1.40
18392;DHT22;9322;50.932;5.318;2024-03-02T08:37:01;11.90;1.40
18392;DHT22;9322;50.932;5.318;2024-03-02T08:39:27;11.80;1.40
18392;DHT22;9322;50.932;5.318;2024-03-02T08:41:53;11.70;1.40
18392;DHT22;9322;50.932;5.318;2024-03-02T08:44:19;11.40;1.40
18392;DHT22;9322;50.932;5.318;2024-03-02T08:46:45;11.20;1.40
18392;DHT22;9322;50.932;5.318;2024-03-02T08:49:11;11.80;1.40
18392;DHT22;9322;50.932;5.318;2024-03-02T08:51:36;12.20;1.40
18392;DHT22;9322;50.932;5.318;2024-03-02T08:54:02;12.40;1.40
18392;DHT22;9322;50.932;5.318;2024-03-02T08:56:30;12.70;1.40
18392;DHT22;9322;50.932;5.318;2024-03-02T08:58:56;11.80;1.40
18392;DHT22;9322;50.932;5.318;2024-03-02T09:01:22;12.10;1.40
18392;DHT22;9322;50.932;5.318;2024-03-02T09:03:48;12.80;1.40
18392;DHT22;9322;50.932;5.318;2024-03-02T09:06:15;13.40;1.40
18392;DHT22;9322;50.932;5.318;2024-03-02T09:08:42;13.60;1.40
18392;DHT22;9322;50.932;5.318;2024-03-02T09:11:10;13.10;1.40
18392;DHT22;9322;50.932;5.318;2024-03-02T09:13:39;13.10;1.40
18392;DHT22;9322;50.932;5.318;2024-03-02T09:16:04;13.30;1.40
18392;DHT22;9322;50.932;5.318;2024-03-02T09:18:31;12.00;1.40
18392;DHT22;9322;50.932;5.318;2024-03-02T09:20:56;12.70;1.40
18392;DHT22;9322;50.932;5.318;2024-03-02T09:23:22;12.80;1.40
18392;DHT22;9322;50.932;5.318;2024-03-02T09:25:48;13.20;1.40
18392;DHT22;9322;50.932;5.318;2024-03-02T09:28:15;13.90;1.40
18392;DHT22;9322;50.932;5.318;2024-03-02T09:30:41;13.30;1.40
18392;DHT22;9322;50.932;5.318;2024-03-02T09:33:06;13.60;1.40
18392;DHT22;9322;50.932;5.318;2024-03-02T09:35:32;13.70;1.40
18392;DHT22;9322;50.932;5.318;2024-03-02T09:37:58;14.40;1.40
18392;DHT22;9322;50.932;5.318;2024-03-02T09:40:24;13.40;1.40
18392;DHT22;9322;50.932;5.318;2024-03-02T09:42:50;12.90;1.40
18392;DHT22;9322;50.932;5.318;2024-03-02T09:45:24;11.60;1.40
18392;DHT22;9322;50.932;5.318;2024-03-02T09:47:50;11.30;1.40
18392;DHT22;9322;50.932;5.318;2024-03-02T09:50:16;11.50;1.40
18392;DHT22;9322;50.932;5.318;2024-03-02T09:52:42;11.60;1.40
18392;DHT22;9322;50.932;5.318;2024-03-02T09:55:08;11.40;1.40
18392;DHT22;9322;50.932;5.318;2024-03-02T09:57:34;11.50;1.40
18392;DHT22;9322;50.932;5.318;2024-03-02T10:00:00;11.60;1.40
18392;DHT22;9322;50.932;5.318;2024-03-02T10:02:26;11.60;1.40
18392;DHT22;9322;50.932;5.318;2024-03-02T10:04:52;11.70;1.40
18392;DHT22;9322;50.932;5.318;2024-03-02T10:07:19;11.60;1.40
18392;DHT22;9322;50.932;5.318;2024-03-02T10:09:46;11.40;1.40
18392;DHT22;9322;50.932;5.318;2024-03-02T10:12:14;11.50;1.40
18392;DHT22;9322;50.932;5.318;2024-03-02T10:14:40;11.50;1.40
18392;DHT22;9322;50.932;5.318;2024-03-02T10:17:08;11.60;1.40
18392;DHT22;9322;50.932;5.318;2024-03-02T10:19:35;11.40;1.40
18392;DHT22;9322;50.932;5.318;2024-03-02T10:22:07;11.30;1.40
18392;DHT22;9322;50.932;5.318;2024-03-02T10:24:42;11.20;1.40
18392;DHT22;9322;50.932;5.318;2024-03-02T10:27:14;11.40;1.40
18392;DHT22;9322;50.932;5.318;2024-03-02T10:29:41;11.60;1.40
18392;DHT22;9322;50.932;5.318;2024-03-02T10:32:10;11.40;1.40
18392;DHT22;9322;50.932;5.318;2024-03-02T10:34:37;11.50;1.40
18392;DHT22;9322;50.932;5.318;2024-03-02T10:37:04;11.70;1.40
18392;DHT22;9322;50.932;5.318;2024-03-02T10:39:30;11.90;1.40
18392;DHT22;9322;50.932;5.318;2024-03-02T10:41:57;11.90;1.40
18392;DHT22;9322;50.932;5.318;2024-03-02T10:44:24;11.90;1.40
18392;DHT22;9322;50.932;5.318;2024-03-02T10:46:52;12.50;1.40
18392;DHT22;9322;50.932;5.318;2024-03-02T10:49:20;12.40;1.40
18392;DHT22;9322;50.932;5.318;2024-03-02T10:51:48;13.10;1.40
18392;DHT22;9322;50.932;5.318;2024-03-02T10:54:13;14.00;1.40
18392;DHT22;9322;50.932;5.318;2024-03-02T10:56:41;14.20;1.40
18392;DHT22;9322;50.932;5.318;2024-03-02T11:01:57;14.00;1.40
18392;DHT22;9322;50.932;5.318;2024-03-02T11:04:25;14.70;1.40
18392;DHT22;9322;50.932;5.318;2024-03-02T11:06:52;14.90;1.40
18392;DHT22;9322;50.932;5.318;2024-03-02T11:09:22;14.90;1.40
18392;DHT22;9322;50.932;5.318;2024-03-02T11:12:00;15.10;1.40
18392;DHT22;9322;50.932;5.318;2024-03-02T11:14:30;16.10;1.40
18392;DHT22;9322;50.932;5.318;2024-03-02T11:16:58;17.00;1.40
18392;DHT22;9322;50.932;5.318;2024-03-02T11:19:25;14.80;1.40
18392;DHT22;9322;50.932;5.318;2024-03-02T11:21:51;14.60;1.40
18392;DHT22;9322;50.932;5.318;2024-03-02T11:24:37;15.30;1.40
18392;DHT22;9322;50.932;5.318;2024-03-02T11:27:04;15.30;1.40
18392;DHT22;9322;50.932;5.318;2024-03-02T11:32:03;15.10;1.40
18392;DHT22;9322;50.932;5.318;2024-03-02T11:34:35;14.80;1.40
18392;DHT22;9322;50.932;5.318;2024-03-02T11:37:02;14.40;1.40
18392;DHT22;9322;50.932;5.318;2024-03-02T11:39:28;14.50;1.40
18392;DHT22;9322;50.932;5.318;2024-03-02T11:41:57;14.80;1.40
18392;DHT22;9322;50.932;5.318;2024-03-02T11:44:27;15.60;1.40
18392;DHT22;9322;50.932;5.318;2024-03-02T11:47:00;14.90;1.40
18392;DHT22;9322;50.932;5.318;2024-03-02T11:52:05;14.90;1.40
18392;DHT22;9322;50.932;5.318;2024-03-02T11:54:33;14.80;1.40
18392;DHT22;9322;50.932;5.318;2024-03-02T11:57:02;14.50;1.40
18392;DHT22;9322;50.932;5.318;2024-03-02T11:59:31;14.40;1.40
18392;DHT22;9322;50.932;5.318;2024-03-02T12:01:58;13.90;1.40
18392;DHT22;9322;50.932;5.318;2024-03-02T12:04:24;14.50;1.40
18392;DHT22;9322;50.932;5.318;2024-03-02T12:06:58;15.50;1.40
18392;DHT22;9322;50.932;5.318;2024-03-02T12:09:28;15.70;1.40
18392;DHT22;9322;50.932;5.318;2024-03-02T12:12:10;15.40;1.40
18392;DHT22;9322;50.932;5.318;2024-03-02T12:14:37;15.10;1.40
18392;DHT22;9322;50.932;5.318;2024-03-02T12:17:03;15.40;1.40
18392;DHT22;9322;50.932;5.318;2024-03-02T12:19:30;16.10;1.40
18392;DHT22;9322;50.932;5.318;2024-03-02T12:21:57;15.70;1.40
18392;DHT22;9322;50.932;5.318;2024-03-02T12:24:23;15.10;1.40
18392;DHT22;9322;50.932;5.318;2024-03-02T12:26:50;15.20;1.40
18392;DHT22;9322;50.932;5.318;2024-03-02T12:29:21;15.30;1.40
18392;DHT22;9322;50.932;5.318;2024-03-02T12:31:51;15.90;1.40
18392;DHT22;9322;50.932;5.318;2024-03-02T12:34:20;15.80;1.40
18392;DHT22;9322;50.932;5.318;2024-03-02T12:36:47;16.00;1.40
18392;DHT22;9322;50.932;5.318;2024-03-02T12:39:16;15.90;1.40
18392;DHT22;9322;50.932;5.318;2024-03-02T12:41:41;15.40;1.40
18392;DHT22;9322;50.932;5.318;2024-03-02T12:44:07;14.80;1.40
18392;DHT22;9322;50.932;5.318;2024-03-02T12:46:33;14.40;1.40
18392;DHT22;9322;50.932;5.318;2024-03-02T12:49:07;13.90;1.40
18392;DHT22;9322;50.932;5.318;2024-03-02T12:51:34;13.50;1.40
18392;DHT22;9322;50.932;5.318;2024-03-02T12:54:00;13.50;1.40
18392;DHT22;9322;50.932;5.318;2024-03-02T12:56:26;13.60;1.40
18392;DHT22;9322;50.932;5.318;2024-03-02T12:58:55;13.60;1.40
18392;DHT22;9322;50.932;5.318;2024-03-02T13:01:21;13.80;1.40
18392;DHT22;9322;50.932;5.318;2024-03-02T13:03:50;13.90;1.40
18392;DHT22;9322;50.932;5.318;2024-03-02T13:06:21;14.10;1.40
18392;DHT22;9322;50.932;5.318;2024-03-02T13:08:47;14.00;1.40
18392;DHT22;9322;50.932;5.318;2024-03-02T13:11:13;13.80;1.40
18392;DHT22;9322;50.932;5.318;2024-03-02T13:13:39;14.00;1.40
18392;DHT22;9322;50.932;5.318;2024-03-02T13:16:09;13.90;1.40
18392;DHT22;9322;50.932;5.318;2024-03-02T13:18:36;13.60;1.40
18392;DHT22;9322;50.932;5.318;2024-03-02T13:21:02;13.60;1.40
18392;DHT22;9322;50.932;5.318;2024-03-02T13:23:28;13.60;1.40
18392;DHT22;9322;50.932;5.318;2024-03-02T13:25:57;13.90;1.40
18392;DHT22;9322;50.932;5.318;2024-03-02T13:28:24;14.10;1.40
18392;DHT22;9322;50.932;5.318;2024-03-02T13:30:49;13.90;1.40
18392;DHT22;9322;50.932;5.318;2024-03-02T13:33:15;14.10;1.40
18392;DHT22;9322;50.932;5.318;2024-03-02T13:35:41;14.30;1.40
18392;DHT22;9322;50.932;5.318;2024-03-02T13:38:06;14.60;1.40
18392;DHT22;9322;50.932;5.318;2024-03-02T13:40:32;15.10;1.40
18392;DHT22;9322;50.932;5.318;2024-03-02T13:43:02;15.20;1.40
18392;DHT22;9322;50.932;5.318;2024-03-02T13:45:28;15.10;1.40
18392;DHT22;9322;50.932;5.318;2024-03-02T13:47:54;15.00;1.40
18392;DHT22;9322;50.932;5.318;2024-03-02T13:50:19;14.60;1.40
18392;DHT22;9322;50.932;5.318;2024-03-02T13:52:47;14.30;1.40
18392;DHT22;9322;50.932;5.318;2024-03-02T13:55:12;14.30;1.40
18392;DHT22;9322;50.932;5.318;2024-03-02T13:57:38;14.30;1.40
18392;DHT22;9322;50.932;5.318;2024-03-02T14:00:05;14.20;1.40
18392;DHT22;9322;50.932;5.318;2024-03-02T14:02:36;14.40;1.40
18392;DHT22;9322;50.932;5.318;2024-03-02T14:05:01;14.40;1.40
18392;DHT22;9322;50.932;5.318;2024-03-02T14:07:27;14.40;1.40
18392;DHT22;9322;50.932;5.318;2024-03-02T14:09:53;14.50;1.40
18392;DHT22;9322;50.932;5.318;2024-03-02T14:12:19;14.50;1.40
18392;DHT22;9322;50.932;5.318;2024-03-02T14:14:44;14.20;1.40
18392;DHT22;9322;50.932;5.318;2024-03-02T14:17:10;14.30;1.40
18392;DHT22;9322;50.932;5.318;2024-03-02T14:19:40;14.20;1.40
18392;DHT22;9322;50.932;5.318;2024-03-02T14:22:05;14.10;1.40
18392;DHT22;9322;50.932;5.318;2024-03-02T14:24:31;13.80;1.40
18392;DHT22;9322;50.932;5.318;2024-03-02T14:26:57;14.10;1.40
18392;DHT22;9322;50.932;5.318;2024-03-02T14:29:24;14.20;1.40
18392;DHT22;9322;50.932;5.318;2024-03-02T14:31:50;14.10;1.40
18392;DHT22;9322;50.932;5.318;2024-03-02T14:34:16;14.00;1.40
18392;DHT22;9322;50.932;5.318;2024-03-02T14:36:41;13.70;1.40
18392;DHT22;9322;50.932;5.318;2024-03-02T14:39:10;13.70;1.40
18392;DHT22;9322;50.932;5.318;2024-03-02T14:41:38;13.70;1.40
18392;DHT22;9322;50.932;5.318;2024-03-02T14:44:04;13.60;1.40
18392;DHT22;9322;50.932;5.318;2024-03-02T14:46:30;13.50;1.40
18392;DHT22;9322;50.932;5.318;2024-03-02T14:48:56;13.60;1.40
18392;DHT22;9322;50.932;5.318;2024-03-02T14:51:22;13.40;1.40
18392;DHT22;9322;50.932;5.318;2024-03-02T14:53:48;13.50;1.40
18392;DHT22;9322;50.932;5.318;2024-03-02T14:56:13;13.50;1.40
18392;DHT22;9322;50.932;5.318;2024-03-02T14:58:39;13.60;1.40
18392;DHT22;9322;50.932;5.318;2024-03-02T15:01:05;13.60;1.40
18392;DHT22;9322;50.932;5.318;2024-03-02T15:03:31;13.60;1.40
18392;DHT22;9322;50.932;5.318;2024-03-02T15:05:57;13.40;1.40
18392;DHT22;9322;50.932;5.318;2024-03-02T15:08:23;13.30;1.40
18392;DHT22;9322;50.932;5.318;2024-03-02T15:10:49;13.40;1.40
18392;DHT22;9322;50.932;5.318;2024-03-02T15:13:15;13.50;1.40
18392;DHT22;9322;50.932;5.318;2024-03-02T15:15:41;13.30;1.40
18392;DHT22;9322;50.932;5.318;2024-03-02T15:18:06;13.20;1.40
18392;DHT22;9322;50.932;5.318;2024-03-02T15:20:33;13.20;1.40
18392;DHT22;9322;50.932;5.318;2024-03-02T15:22:59;13.20;1.40
18392;DHT22;9322;50.932;5.318;2024-03-02T15:25:25;13.10;1.40
18392;DHT22;9322;50.932;5.318;2024-03-02T15:27:50;13.10;1.40
18392;DHT22;9322;50.932;5.318;2024-03-02T15:30:16;13.30;1.40
18392;DHT22;9322;50.932;5.318;2024-03-02T15:32:42;13.30;1.40
18392;DHT22;9322;50.932;5.318;2024-03-02T15:35:08;13.20;1.40
18392;DHT22;9322;50.932;5.318;2024-03-02T15:37:34;13.20;1.40
18392;DHT22;9322;50.932;5.318;2024-03-02T15:39:59;13.10;1.40
18392;DHT22;9322;50.932;5.318;2024-03-02T15:42:35;13.10;1.40
18392;DHT22;9322;50.932;5.318;2024-03-02T15:45:01;13.20;1.40
18392;DHT22;9322;50.932;5.318;2024-03-02T15:47:27;13.40;1.40
18392;DHT22;9322;50.932;5.318;2024-03-02T15:49:53;13.40;1.40
18392;DHT22;9322;50.932;5.318;2024-03-02T15:52:19;13.40;1.40
18392;DHT22;9322;50.932;5.318;2024-03-02T15:54:46;13.40;1.40
18392;DHT22;9322;50.932;5.318;2024-03-02T15:57:12;13.30;1.40
18392;DHT22;9322;50.932;5.318;2024-03-02T15:59:39;13.40;1.40
18392;DHT22;9322;50.932;5.318;2024-03-02T16:02:05;13.50;1.40
18392;DHT22;9322;50.932;5.318;2024-03-02T16:04:30;13.50;1.40
18392;DHT22;9322;50.932;5.318;2024-03-02T16:06:56;13.50;1.40
18392;DHT22;9322;50.932;5.318;2024-03-02T16:09:22;13.60;1.40
18392;DHT22;9322;50.932;5.318;2024-03-02T16:11:47;13.60;1.40
18392;DHT22;9322;50.932;5.318;2024-03-02T16:14:16;13.60;1.40
18392;DHT22;9322;50.932;5.318;2024-03-02T16:16:42;13.30;1.40
18392;DHT22;9322;50.932;5.318;2024-03-02T16:19:08;13.40;1.40